sensor_id;sensor_type;location;lat;lon;timestamp;P1;durP1;ratioP1;P2;durP2;ratioP2
34549;SDS011;66080;52.078;5.626;2023-07-31T00:00:32;11.88;;;1.90;;
34549;SDS011;66080;52.078;5.626;2023-07-31T00:02:57;1.23;;;1.17;;
34549;SDS011;66080;52.078;5.626;2023-07-31T00:05:23;1.20;;;1.10;;
34549;SDS011;66080;52.078;5.626;2023-07-31T00:07:48;1.60;;;1.50;;
34549;SDS011;66080;52.078;5.626;2023-07-31T00:10:14;2.78;;;1.65;;
34549;SDS011;66080;52.078;5.626;2023-07-31T00:12:41;1.40;;;1.30;;
34549;SDS011;66080;52.078;5.626;2023-07-31T00:15:08;1.30;;;1.20;;
34549;SDS011;66080;52.078;5.626;2023-07-31T00:17:34;1.02;;;0.80;;
34549;SDS011;66080;52.078;5.626;2023-07-31T00:20:00;4.32;;;1.23;;
34549;SDS011;66080;52.078;5.626;2023-07-31T00:22:25;1.25;;;1.10;;
34549;SDS011;66080;52.078;5.626;2023-07-31T00:24:51;3.03;;;1.13;;
34549;SDS011;66080;52.078;5.626;2023-07-31T00:27:16;3.30;;;1.23;;
34549;SDS011;66080;52.078;5.626;2023-07-31T00:29:42;6.75;;;2.15;;
34549;SDS011;66080;52.078;5.626;2023-07-31T00:32:07;1.73;;;1.63;;
34549;SDS011;66080;52.078;5.626;2023-07-31T00:34:33;1.48;;;1.38;;
34549;SDS011;66080;52.078;5.626;2023-07-31T00:36:58;2.10;;;1.77;;
34549;SDS011;66080;52.078;5.626;2023-07-31T00:39:24;2.80;;;2.55;;
34549;SDS011;66080;52.078;5.626;2023-07-31T00:41:50;2.80;;;2.40;;
34549;SDS011;66080;52.078;5.626;2023-07-31T00:44:15;6.53;;;3.95;;
34549;SDS011;66080;52.078;5.626;2023-07-31T00:46:41;7.28;;;3.30;;
34549;SDS011;66080;52.078;5.626;2023-07-31T00:49:06;11.00;;;5.25;;
34549;SDS011;66080;52.078;5.626;2023-07-31T00:51:33;11.38;;;5.28;;
34549;SDS011;66080;52.078;5.626;2023-07-31T00:53:59;12.90;;;6.25;;
34549;SDS011;66080;52.078;5.626;2023-07-31T00:56:25;20.60;;;7.43;;
34549;SDS011;66080;52.078;5.626;2023-07-31T00:58:52;24.92;;;8.23;;
34549;SDS011;66080;52.078;5.626;2023-07-31T01:01:18;35.78;;;8.43;;
34549;SDS011;66080;52.078;5.626;2023-07-31T01:03:44;30.08;;;8.25;;
34549;SDS011;66080;52.078;5.626;2023-07-31T01:11:53;30.90;;;10.60;;
34549;SDS011;66080;52.078;5.626;2023-07-31T01:14:21;33.33;;;8.23;;
34549;SDS011;66080;52.078;5.626;2023-07-31T01:16:47;33.08;;;9.80;;
34549;SDS011;66080;52.078;5.626;2023-07-31T01:19:14;31.75;;;8.63;;
34549;SDS011;66080;52.078;5.626;2023-07-31T01:24:33;40.35;;;9.50;;
34549;SDS011;66080;52.078;5.626;2023-07-31T01:27:21;30.25;;;8.32;;
34549;SDS011;66080;52.078;5.626;2023-07-31T01:29:55;32.20;;;9.25;;
34549;SDS011;66080;52.078;5.626;2023-07-31T01:32:25;22.42;;;8.88;;
34549;SDS011;66080;52.078;5.626;2023-07-31T01:34:54;27.15;;;7.88;;
34549;SDS011;66080;52.078;5.626;2023-07-31T01:37:24;33.08;;;9.85;;
34549;SDS011;66080;52.078;5.626;2023-07-31T01:39:53;25.95;;;7.80;;
34549;SDS011;66080;52.078;5.626;2023-07-31T01:42:19;25.10;;;8.98;;
34549;SDS011;66080;52.078;5.626;2023-07-31T01:44:44;24.73;;;8.00;;
34549;SDS011;66080;52.078;5.626;2023-07-31T01:47:10;28.38;;;8.38;;
34549;SDS011;66080;52.078;5.626;2023-07-31T01:49:35;19.35;;;7.88;;
34549;SDS011;66080;52.078;5.626;2023-07-31T01:52:01;20.13;;;7.20;;
34549;SDS011;66080;52.078;5.626;2023-07-31T01:54:27;21.65;;;8.20;;
34549;SDS011;66080;52.078;5.626;2023-07-31T01:56:52;21.30;;;6.88;;
34549;SDS011;66080;52.078;5.626;2023-07-31T01:59:18;14.10;;;5.35;;
34549;SDS011;66080;52.078;5.626;2023-07-31T02:01:43;12.20;;;4.82;;
34549;SDS011;66080;52.078;5.626;2023-07-31T02:04:09;14.05;;;5.65;;
34549;SDS011;66080;52.078;5.626;2023-07-31T02:06:34;18.48;;;7.05;;
34549;SDS011;66080;52.078;5.626;2023-07-31T02:09:00;29.88;;;8.88;;
34549;SDS011;66080;52.078;5.626;2023-07-31T02:11:25;19.55;;;7.25;;
34549;SDS011;66080;52.078;5.626;2023-07-31T02:13:51;20.75;;;7.63;;
34549;SDS011;66080;52.078;5.626;2023-07-31T02:16:16;17.35;;;5.68;;
34549;SDS011;66080;52.078;5.626;2023-07-31T02:18:42;23.05;;;5.32;;
34549;SDS011;66080;52.078;5.626;2023-07-31T02:21:07;17.85;;;5.97;;
34549;SDS011;66080;52.078;5.626;2023-07-31T02:23:33;14.02;;;5.50;;
34549;SDS011;66080;52.078;5.626;2023-07-31T02:25:58;11.07;;;4.35;;
34549;SDS011;66080;52.078;5.626;2023-07-31T02:28:24;19.70;;;4.82;;
34549;SDS011;66080;52.078;5.626;2023-07-31T02:30:50;15.38;;;5.00;;
34549;SDS011;66080;52.078;5.626;2023-07-31T02:33:17;15.75;;;6.55;;
34549;SDS011;66080;52.078;5.626;2023-07-31T02:35:42;15.80;;;4.47;;
34549;SDS011;66080;52.078;5.626;2023-07-31T02:38:08;14.57;;;4.15;;
34549;SDS011;66080;52.078;5.626;2023-07-31T02:40:34;16.48;;;5.30;;
34549;SDS011;66080;52.078;5.626;2023-07-31T02:42:59;18.17;;;4.72;;
34549;SDS011;66080;52.078;5.626;2023-07-31T02:45:25;15.02;;;4.97;;
34549;SDS011;66080;52.078;5.626;2023-07-31T02:47:50;12.32;;;3.97;;
34549;SDS011;66080;52.078;5.626;2023-07-31T02:50:16;10.65;;;4.95;;
34549;SDS011;66080;52.078;5.626;2023-07-31T02:52:41;17.30;;;5.15;;
34549;SDS011;66080;52.078;5.626;2023-07-31T02:55:07;17.80;;;5.93;;
34549;SDS011;66080;52.078;5.626;2023-07-31T02:57:33;12.68;;;5.32;;
34549;SDS011;66080;52.078;5.626;2023-07-31T02:59:58;15.48;;;6.47;;
34549;SDS011;66080;52.078;5.626;2023-07-31T03:02:24;30.98;;;8.02;;
34549;SDS011;66080;52.078;5.626;2023-07-31T03:04:49;12.98;;;5.15;;
34549;SDS011;66080;52.078;5.626;2023-07-31T03:07:15;20.85;;;7.75;;
34549;SDS011;66080;52.078;5.626;2023-07-31T03:09:41;19.73;;;6.78;;
34549;SDS011;66080;52.078;5.626;2023-07-31T03:12:06;25.13;;;7.00;;
34549;SDS011;66080;52.078;5.626;2023-07-31T03:14:33;28.60;;;7.97;;
34549;SDS011;66080;52.078;5.626;2023-07-31T03:16:59;27.02;;;8.30;;
34549;SDS011;66080;52.078;5.626;2023-07-31T03:19:25;17.92;;;6.32;;
34549;SDS011;66080;52.078;5.626;2023-07-31T03:21:50;16.25;;;6.43;;
34549;SDS011;66080;52.078;5.626;2023-07-31T03:24:16;25.63;;;8.10;;
34549;SDS011;66080;52.078;5.626;2023-07-31T03:26:41;16.45;;;6.53;;
34549;SDS011;66080;52.078;5.626;2023-07-31T03:29:07;15.77;;;7.18;;
34549;SDS011;66080;52.078;5.626;2023-07-31T03:31:33;30.05;;;8.77;;
34549;SDS011;66080;52.078;5.626;2023-07-31T03:33:59;22.42;;;7.07;;
34549;SDS011;66080;52.078;5.626;2023-07-31T03:36:24;28.30;;;7.28;;
34549;SDS011;66080;52.078;5.626;2023-07-31T03:38:51;22.65;;;8.13;;
34549;SDS011;66080;52.078;5.626;2023-07-31T03:41:17;26.33;;;7.95;;
34549;SDS011;66080;52.078;5.626;2023-07-31T03:43:42;38.30;;;9.43;;
34549;SDS011;66080;52.078;5.626;2023-07-31T03:46:08;21.35;;;7.25;;
34549;SDS011;66080;52.078;5.626;2023-07-31T03:48:34;26.63;;;6.80;;
34549;SDS011;66080;52.078;5.626;2023-07-31T03:50:59;17.52;;;6.90;;
34549;SDS011;66080;52.078;5.626;2023-07-31T03:53:25;30.50;;;7.93;;
34549;SDS011;66080;52.078;5.626;2023-07-31T03:55:50;24.10;;;6.80;;
34549;SDS011;66080;52.078;5.626;2023-07-31T03:58:16;21.48;;;7.30;;
34549;SDS011;66080;52.078;5.626;2023-07-31T04:00:41;18.90;;;6.60;;
34549;SDS011;66080;52.078;5.626;2023-07-31T04:03:07;33.63;;;10.30;;
34549;SDS011;66080;52.078;5.626;2023-07-31T04:05:32;22.73;;;8.05;;
34549;SDS011;66080;52.078;5.626;2023-07-31T04:07:58;28.48;;;8.45;;
34549;SDS011;66080;52.078;5.626;2023-07-31T04:10:24;21.20;;;7.10;;
34549;SDS011;66080;52.078;5.626;2023-07-31T04:12:49;17.52;;;6.50;;
34549;SDS011;66080;52.078;5.626;2023-07-31T04:15:15;33.13;;;7.72;;
34549;SDS011;66080;52.078;5.626;2023-07-31T04:17:40;21.85;;;6.88;;
34549;SDS011;66080;52.078;5.626;2023-07-31T04:20:06;15.88;;;7.43;;
34549;SDS011;66080;52.078;5.626;2023-07-31T04:22:32;19.98;;;7.05;;
34549;SDS011;66080;52.078;5.626;2023-07-31T04:24:58;20.48;;;7.38;;
34549;SDS011;66080;52.078;5.626;2023-07-31T04:27:24;18.27;;;6.63;;
34549;SDS011;66080;52.078;5.626;2023-07-31T04:29:50;19.38;;;7.05;;
34549;SDS011;66080;52.078;5.626;2023-07-31T04:32:16;22.33;;;6.80;;
34549;SDS011;66080;52.078;5.626;2023-07-31T04:34:41;30.60;;;6.30;;
34549;SDS011;66080;52.078;5.626;2023-07-31T04:37:07;25.15;;;7.53;;
34549;SDS011;66080;52.078;5.626;2023-07-31T04:39:33;18.13;;;5.90;;
34549;SDS011;66080;52.078;5.626;2023-07-31T04:41:59;25.58;;;6.57;;
34549;SDS011;66080;52.078;5.626;2023-07-31T04:44:24;24.27;;;7.85;;
34549;SDS011;66080;52.078;5.626;2023-07-31T04:46:50;22.55;;;7.07;;
34549;SDS011;66080;52.078;5.626;2023-07-31T04:49:15;17.55;;;6.85;;
34549;SDS011;66080;52.078;5.626;2023-07-31T04:51:41;27.92;;;6.65;;
34549;SDS011;66080;52.078;5.626;2023-07-31T04:54:06;20.63;;;5.72;;
34549;SDS011;66080;52.078;5.626;2023-07-31T04:56:32;21.50;;;6.93;;
34549;SDS011;66080;52.078;5.626;2023-07-31T04:58:58;18.80;;;5.72;;
34549;SDS011;66080;52.078;5.626;2023-07-31T05:01:23;25.08;;;7.78;;
34549;SDS011;66080;52.078;5.626;2023-07-31T05:03:49;17.40;;;6.47;;
34549;SDS011;66080;52.078;5.626;2023-07-31T05:06:14;22.52;;;6.97;;
34549;SDS011;66080;52.078;5.626;2023-07-31T05:08:40;21.75;;;6.57;;
34549;SDS011;66080;52.078;5.626;2023-07-31T05:11:06;19.63;;;6.55;;
34549;SDS011;66080;52.078;5.626;2023-07-31T05:13:31;19.45;;;5.97;;
34549;SDS011;66080;52.078;5.626;2023-07-31T05:15:57;15.65;;;6.95;;
34549;SDS011;66080;52.078;5.626;2023-07-31T05:18:22;21.30;;;5.80;;
34549;SDS011;66080;52.078;5.626;2023-07-31T05:20:48;18.15;;;6.10;;
34549;SDS011;66080;52.078;5.626;2023-07-31T05:23:13;15.20;;;5.40;;
34549;SDS011;66080;52.078;5.626;2023-07-31T05:25:39;19.30;;;5.35;;
34549;SDS011;66080;52.078;5.626;2023-07-31T05:28:05;12.30;;;5.93;;
34549;SDS011;66080;52.078;5.626;2023-07-31T05:30:30;9.40;;;5.20;;
34549;SDS011;66080;52.078;5.626;2023-07-31T05:32:56;12.05;;;4.07;;
34549;SDS011;66080;52.078;5.626;2023-07-31T05:35:22;22.50;;;6.82;;
34549;SDS011;66080;52.078;5.626;2023-07-31T05:37:47;12.23;;;5.88;;
34549;SDS011;66080;52.078;5.626;2023-07-31T05:40:13;15.00;;;5.13;;
34549;SDS011;66080;52.078;5.626;2023-07-31T05:42:39;14.98;;;5.28;;
34549;SDS011;66080;52.078;5.626;2023-07-31T05:45:05;18.58;;;6.45;;
34549;SDS011;66080;52.078;5.626;2023-07-31T05:47:31;15.13;;;6.25;;
34549;SDS011;66080;52.078;5.626;2023-07-31T05:49:57;15.15;;;6.45;;
34549;SDS011;66080;52.078;5.626;2023-07-31T05:52:22;10.85;;;5.82;;
34549;SDS011;66080;52.078;5.626;2023-07-31T05:54:48;12.00;;;4.97;;
34549;SDS011;66080;52.078;5.626;2023-07-31T05:57:13;10.52;;;5.18;;
34549;SDS011;66080;52.078;5.626;2023-07-31T05:59:39;9.73;;;5.80;;
34549;SDS011;66080;52.078;5.626;2023-07-31T06:02:05;14.68;;;5.93;;
34549;SDS011;66080;52.078;5.626;2023-07-31T06:04:31;10.00;;;5.22;;
34549;SDS011;66080;52.078;5.626;2023-07-31T06:06:56;15.98;;;5.75;;
34549;SDS011;66080;52.078;5.626;2023-07-31T06:09:22;12.63;;;5.53;;
34549;SDS011;66080;52.078;5.626;2023-07-31T06:11:48;12.60;;;5.22;;
34549;SDS011;66080;52.078;5.626;2023-07-31T06:14:13;10.05;;;5.13;;
34549;SDS011;66080;52.078;5.626;2023-07-31T06:16:39;11.85;;;5.60;;
34549;SDS011;66080;52.078;5.626;2023-07-31T06:19:05;13.57;;;5.70;;
34549;SDS011;66080;52.078;5.626;2023-07-31T06:21:32;11.73;;;5.97;;
34549;SDS011;66080;52.078;5.626;2023-07-31T06:23:58;9.68;;;4.05;;
34549;SDS011;66080;52.078;5.626;2023-07-31T06:26:23;11.50;;;4.07;;
34549;SDS011;66080;52.078;5.626;2023-07-31T06:28:49;8.73;;;4.25;;
34549;SDS011;66080;52.078;5.626;2023-07-31T06:31:14;8.80;;;4.88;;
34549;SDS011;66080;52.078;5.626;2023-07-31T06:33:40;10.45;;;4.45;;
34549;SDS011;66080;52.078;5.626;2023-07-31T06:36:05;10.50;;;5.20;;
34549;SDS011;66080;52.078;5.626;2023-07-31T06:38:31;9.55;;;4.68;;
34549;SDS011;66080;52.078;5.626;2023-07-31T06:40:57;6.45;;;3.88;;
34549;SDS011;66080;52.078;5.626;2023-07-31T06:43:22;9.43;;;4.70;;
34549;SDS011;66080;52.078;5.626;2023-07-31T06:45:48;7.93;;;4.15;;
34549;SDS011;66080;52.078;5.626;2023-07-31T06:48:16;7.97;;;3.80;;
34549;SDS011;66080;52.078;5.626;2023-07-31T06:50:41;11.07;;;3.80;;
34549;SDS011;66080;52.078;5.626;2023-07-31T06:53:07;9.38;;;4.53;;
34549;SDS011;66080;52.078;5.626;2023-07-31T06:55:33;7.55;;;3.50;;
34549;SDS011;66080;52.078;5.626;2023-07-31T06:57:58;6.13;;;2.70;;
34549;SDS011;66080;52.078;5.626;2023-07-31T07:00:24;7.80;;;3.00;;
34549;SDS011;66080;52.078;5.626;2023-07-31T07:02:49;5.55;;;2.90;;
34549;SDS011;66080;52.078;5.626;2023-07-31T07:05:15;4.10;;;2.83;;
34549;SDS011;66080;52.078;5.626;2023-07-31T07:07:42;6.45;;;3.20;;
34549;SDS011;66080;52.078;5.626;2023-07-31T07:10:08;6.40;;;3.38;;
34549;SDS011;66080;52.078;5.626;2023-07-31T07:12:34;4.30;;;2.80;;
34549;SDS011;66080;52.078;5.626;2023-07-31T07:15:00;4.75;;;2.92;;
34549;SDS011;66080;52.078;5.626;2023-07-31T07:17:27;5.70;;;3.90;;
34549;SDS011;66080;52.078;5.626;2023-07-31T07:19:56;4.78;;;2.95;;
34549;SDS011;66080;52.078;5.626;2023-07-31T07:22:22;8.32;;;3.10;;
34549;SDS011;66080;52.078;5.626;2023-07-31T07:24:48;3.92;;;2.83;;
34549;SDS011;66080;52.078;5.626;2023-07-31T07:27:13;3.20;;;2.35;;
34549;SDS011;66080;52.078;5.626;2023-07-31T07:29:39;3.13;;;2.60;;
34549;SDS011;66080;52.078;5.626;2023-07-31T07:32:05;6.38;;;3.42;;
34549;SDS011;66080;52.078;5.626;2023-07-31T07:34:31;5.43;;;3.30;;
34549;SDS011;66080;52.078;5.626;2023-07-31T07:36:56;5.90;;;2.53;;
34549;SDS011;66080;52.078;5.626;2023-07-31T07:39:22;3.47;;;2.97;;
34549;SDS011;66080;52.078;5.626;2023-07-31T07:41:47;6.03;;;2.88;;
34549;SDS011;66080;52.078;5.626;2023-07-31T07:44:13;5.53;;;3.90;;
34549;SDS011;66080;52.078;5.626;2023-07-31T07:46:39;3.97;;;3.58;;
34549;SDS011;66080;52.078;5.626;2023-07-31T07:49:06;4.13;;;3.00;;
34549;SDS011;66080;52.078;5.626;2023-07-31T07:51:32;5.68;;;3.33;;
34549;SDS011;66080;52.078;5.626;2023-07-31T07:53:58;8.30;;;3.92;;
34549;SDS011;66080;52.078;5.626;2023-07-31T07:56:25;4.32;;;3.28;;
34549;SDS011;66080;52.078;5.626;2023-07-31T07:58:51;9.65;;;4.00;;
34549;SDS011;66080;52.078;5.626;2023-07-31T08:01:16;5.45;;;4.03;;
34549;SDS011;66080;52.078;5.626;2023-07-31T08:03:42;8.52;;;3.55;;
34549;SDS011;66080;52.078;5.626;2023-07-31T08:06:08;5.88;;;3.63;;
34549;SDS011;66080;52.078;5.626;2023-07-31T08:08:35;5.45;;;4.07;;
34549;SDS011;66080;52.078;5.626;2023-07-31T08:11:01;5.70;;;4.05;;
34549;SDS011;66080;52.078;5.626;2023-07-31T08:13:26;6.80;;;3.60;;
34549;SDS011;66080;52.078;5.626;2023-07-31T08:15:52;5.30;;;3.58;;
34549;SDS011;66080;52.078;5.626;2023-07-31T08:18:18;5.20;;;3.70;;
34549;SDS011;66080;52.078;5.626;2023-07-31T08:20:44;3.58;;;3.22;;
34549;SDS011;66080;52.078;5.626;2023-07-31T08:23:09;5.88;;;3.35;;
34549;SDS011;66080;52.078;5.626;2023-07-31T08:25:35;3.80;;;3.50;;
34549;SDS011;66080;52.078;5.626;2023-07-31T08:28:01;3.65;;;3.30;;
34549;SDS011;66080;52.078;5.626;2023-07-31T08:30:27;3.80;;;3.40;;
34549;SDS011;66080;52.078;5.626;2023-07-31T08:32:53;3.63;;;2.85;;
34549;SDS011;66080;52.078;5.626;2023-07-31T08:35:18;3.45;;;2.70;;
34549;SDS011;66080;52.078;5.626;2023-07-31T08:37:44;4.75;;;2.92;;
34549;SDS011;66080;52.078;5.626;2023-07-31T08:40:09;6.00;;;3.40;;
34549;SDS011;66080;52.078;5.626;2023-07-31T08:42:48;4.15;;;3.47;;
34549;SDS011;66080;52.078;5.626;2023-07-31T08:45:16;3.13;;;2.83;;
34549;SDS011;66080;52.078;5.626;2023-07-31T08:47:44;3.63;;;2.97;;
34549;SDS011;66080;52.078;5.626;2023-07-31T08:50:12;2.88;;;2.67;;
34549;SDS011;66080;52.078;5.626;2023-07-31T08:52:39;6.40;;;2.80;;
34549;SDS011;66080;52.078;5.626;2023-07-31T08:55:05;5.80;;;3.30;;
34549;SDS011;66080;52.078;5.626;2023-07-31T08:57:32;3.25;;;3.05;;
34549;SDS011;66080;52.078;5.626;2023-07-31T09:00:00;5.90;;;2.88;;
34549;SDS011;66080;52.078;5.626;2023-07-31T09:02:29;3.25;;;2.95;;
34549;SDS011;66080;52.078;5.626;2023-07-31T09:05:02;2.95;;;2.65;;
34549;SDS011;66080;52.078;5.626;2023-07-31T09:07:30;2.72;;;2.45;;
34549;SDS011;66080;52.078;5.626;2023-07-31T09:09:58;2.92;;;2.60;;
34549;SDS011;66080;52.078;5.626;2023-07-31T09:12:25;2.40;;;2.30;;
34549;SDS011;66080;52.078;5.626;2023-07-31T09:14:51;2.17;;;1.98;;
34549;SDS011;66080;52.078;5.626;2023-07-31T09:17:16;3.55;;;3.20;;
34549;SDS011;66080;52.078;5.626;2023-07-31T09:22:32;2.60;;;2.40;;
34549;SDS011;66080;52.078;5.626;2023-07-31T09:27:56;4.63;;;3.20;;
34549;SDS011;66080;52.078;5.626;2023-07-31T09:30:23;3.13;;;2.88;;
34549;SDS011;66080;52.078;5.626;2023-07-31T09:32:49;7.25;;;3.78;;
34549;SDS011;66080;52.078;5.626;2023-07-31T09:35:20;3.70;;;3.40;;
34549;SDS011;66080;52.078;5.626;2023-07-31T09:37:48;4.07;;;3.72;;
34549;SDS011;66080;52.078;5.626;2023-07-31T09:40:31;5.70;;;4.13;;
34549;SDS011;66080;52.078;5.626;2023-07-31T09:43:02;4.78;;;3.78;;
34549;SDS011;66080;52.078;5.626;2023-07-31T09:45:29;4.45;;;3.90;;
34549;SDS011;66080;52.078;5.626;2023-07-31T09:47:58;5.00;;;4.53;;
34549;SDS011;66080;52.078;5.626;2023-07-31T09:50:24;5.68;;;4.45;;
34549;SDS011;66080;52.078;5.626;2023-07-31T09:52:50;9.43;;;4.40;;
34549;SDS011;66080;52.078;5.626;2023-07-31T09:55:17;6.50;;;4.60;;
34549;SDS011;66080;52.078;5.626;2023-07-31T09:57:47;6.13;;;5.30;;
34549;SDS011;66080;52.078;5.626;2023-07-31T10:00:14;7.40;;;5.25;;
34549;SDS011;66080;52.078;5.626;2023-07-31T10:02:41;5.63;;;5.00;;
34549;SDS011;66080;52.078;5.626;2023-07-31T10:05:10;6.15;;;5.55;;
34549;SDS011;66080;52.078;5.626;2023-07-31T10:07:40;5.95;;;5.35;;
34549;SDS011;66080;52.078;5.626;2023-07-31T10:10:08;6.70;;;5.10;;
34549;SDS011;66080;52.078;5.626;2023-07-31T10:12:36;5.70;;;4.38;;
34549;SDS011;66080;52.078;5.626;2023-07-31T10:15:03;11.15;;;5.93;;
34549;SDS011;66080;52.078;5.626;2023-07-31T10:17:29;6.65;;;5.68;;
34549;SDS011;66080;52.078;5.626;2023-07-31T10:19:56;9.85;;;6.03;;
34549;SDS011;66080;52.078;5.626;2023-07-31T10:22:27;6.88;;;5.82;;
34549;SDS011;66080;52.078;5.626;2023-07-31T10:24:54;10.25;;;5.82;;
34549;SDS011;66080;52.078;5.626;2023-07-31T10:27:22;6.88;;;6.25;;
34549;SDS011;66080;52.078;5.626;2023-07-31T10:29:47;10.10;;;5.90;;
34549;SDS011;66080;52.078;5.626;2023-07-31T10:32:14;7.30;;;6.60;;
34549;SDS011;66080;52.078;5.626;2023-07-31T10:34:42;7.07;;;6.38;;
34549;SDS011;66080;52.078;5.626;2023-07-31T10:42:38;12.68;;;7.95;;
34549;SDS011;66080;52.078;5.626;2023-07-31T10:45:34;9.15;;;6.68;;
34549;SDS011;66080;52.078;5.626;2023-07-31T10:48:14;13.32;;;6.70;;
34549;SDS011;66080;52.078;5.626;2023-07-31T10:53:24;9.20;;;7.18;;
34549;SDS011;66080;52.078;5.626;2023-07-31T10:55:50;9.30;;;5.93;;
34549;SDS011;66080;52.078;5.626;2023-07-31T10:58:18;7.40;;;5.82;;
34549;SDS011;66080;52.078;5.626;2023-07-31T11:00:45;10.57;;;5.57;;
34549;SDS011;66080;52.078;5.626;2023-07-31T11:03:12;9.65;;;5.43;;
34549;SDS011;66080;52.078;5.626;2023-07-31T11:08:32;5.40;;;4.55;;
34549;SDS011;66080;52.078;5.626;2023-07-31T11:13:39;6.18;;;4.00;;
34549;SDS011;66080;52.078;5.626;2023-07-31T11:16:05;4.93;;;4.10;;
34549;SDS011;66080;52.078;5.626;2023-07-31T11:18:31;9.38;;;4.55;;
34549;SDS011;66080;52.078;5.626;2023-07-31T11:20:57;4.28;;;3.50;;
34549;SDS011;66080;52.078;5.626;2023-07-31T11:23:23;4.95;;;3.78;;
34549;SDS011;66080;52.078;5.626;2023-07-31T11:25:49;9.23;;;3.72;;
34549;SDS011;66080;52.078;5.626;2023-07-31T11:28:16;4.45;;;3.50;;
34549;SDS011;66080;52.078;5.626;2023-07-31T11:30:42;4.45;;;3.20;;
34549;SDS011;66080;52.078;5.626;2023-07-31T11:33:10;4.35;;;3.28;;
34549;SDS011;66080;52.078;5.626;2023-07-31T11:35:44;5.65;;;3.67;;
34549;SDS011;66080;52.078;5.626;2023-07-31T11:38:12;4.05;;;3.65;;
34549;SDS011;66080;52.078;5.626;2023-07-31T11:40:45;7.55;;;4.00;;
34549;SDS011;66080;52.078;5.626;2023-07-31T11:43:11;4.75;;;3.67;;
34549;SDS011;66080;52.078;5.626;2023-07-31T11:45:41;4.88;;;3.95;;
34549;SDS011;66080;52.078;5.626;2023-07-31T11:48:07;5.90;;;4.13;;
34549;SDS011;66080;52.078;5.626;2023-07-31T11:50:33;6.35;;;3.85;;
34549;SDS011;66080;52.078;5.626;2023-07-31T11:53:02;5.82;;;4.18;;
34549;SDS011;66080;52.078;5.626;2023-07-31T11:55:31;5.65;;;4.40;;
34549;SDS011;66080;52.078;5.626;2023-07-31T11:57:57;5.38;;;3.75;;
34549;SDS011;66080;52.078;5.626;2023-07-31T12:00:24;5.22;;;4.50;;
34549;SDS011;66080;52.078;5.626;2023-07-31T12:02:51;5.50;;;4.38;;
34549;SDS011;66080;52.078;5.626;2023-07-31T12:05:17;5.05;;;4.40;;
34549;SDS011;66080;52.078;5.626;2023-07-31T12:07:47;5.68;;;4.03;;
34549;SDS011;66080;52.078;5.626;2023-07-31T12:10:30;6.68;;;4.45;;
34549;SDS011;66080;52.078;5.626;2023-07-31T12:15:38;5.22;;;3.90;;
34549;SDS011;66080;52.078;5.626;2023-07-31T12:18:11;4.60;;;4.10;;
34549;SDS011;66080;52.078;5.626;2023-07-31T12:20:47;4.70;;;3.85;;
34549;SDS011;66080;52.078;5.626;2023-07-31T12:23:18;3.47;;;3.17;;
34549;SDS011;66080;52.078;5.626;2023-07-31T12:26:02;7.53;;;4.13;;
34549;SDS011;66080;52.078;5.626;2023-07-31T12:28:29;3.53;;;3.25;;
34549;SDS011;66080;52.078;5.626;2023-07-31T12:30:58;4.63;;;2.97;;
34549;SDS011;66080;52.078;5.626;2023-07-31T12:33:29;3.90;;;3.60;;
34549;SDS011;66080;52.078;5.626;2023-07-31T12:35:56;3.10;;;2.90;;
34549;SDS011;66080;52.078;5.626;2023-07-31T12:38:22;3.38;;;3.08;;
34549;SDS011;66080;52.078;5.626;2023-07-31T12:40:47;8.25;;;3.33;;
34549;SDS011;66080;52.078;5.626;2023-07-31T12:43:13;3.90;;;3.47;;
34549;SDS011;66080;52.078;5.626;2023-07-31T12:45:39;4.38;;;3.97;;
34549;SDS011;66080;52.078;5.626;2023-07-31T12:48:04;7.43;;;4.00;;
34549;SDS011;66080;52.078;5.626;2023-07-31T12:50:30;5.13;;;4.57;;
34549;SDS011;66080;52.078;5.626;2023-07-31T12:52:56;4.45;;;3.97;;
34549;SDS011;66080;52.078;5.626;2023-07-31T12:55:22;4.38;;;3.97;;
34549;SDS011;66080;52.078;5.626;2023-07-31T12:57:48;5.25;;;4.60;;
34549;SDS011;66080;52.078;5.626;2023-07-31T13:00:14;4.57;;;4.18;;
34549;SDS011;66080;52.078;5.626;2023-07-31T13:02:39;7.95;;;4.30;;
34549;SDS011;66080;52.078;5.626;2023-07-31T13:05:05;5.25;;;4.85;;
34549;SDS011;66080;52.078;5.626;2023-07-31T13:07:31;6.32;;;5.25;;
34549;SDS011;66080;52.078;5.626;2023-07-31T13:09:57;5.75;;;5.22;;
34549;SDS011;66080;52.078;5.626;2023-07-31T13:12:22;6.22;;;5.72;;
34549;SDS011;66080;52.078;5.626;2023-07-31T13:14:48;6.30;;;5.53;;
34549;SDS011;66080;52.078;5.626;2023-07-31T13:17:13;7.38;;;6.63;;
34549;SDS011;66080;52.078;5.626;2023-07-31T13:19:39;7.68;;;5.57;;
34549;SDS011;66080;52.078;5.626;2023-07-31T13:22:04;7.18;;;6.40;;
34549;SDS011;66080;52.078;5.626;2023-07-31T13:24:30;6.80;;;5.82;;
34549;SDS011;66080;52.078;5.626;2023-07-31T13:26:56;6.70;;;6.05;;
34549;SDS011;66080;52.078;5.626;2023-07-31T13:29:22;6.15;;;5.57;;
34549;SDS011;66080;52.078;5.626;2023-07-31T13:31:48;9.48;;;5.20;;
34549;SDS011;66080;52.078;5.626;2023-07-31T13:34:14;6.40;;;5.82;;
34549;SDS011;66080;52.078;5.626;2023-07-31T13:36:39;6.13;;;5.05;;
34549;SDS011;66080;52.078;5.626;2023-07-31T13:39:06;7.22;;;6.63;;
34549;SDS011;66080;52.078;5.626;2023-07-31T13:41:32;5.40;;;4.90;;
34549;SDS011;66080;52.078;5.626;2023-07-31T13:43:58;8.30;;;6.40;;
34549;SDS011;66080;52.078;5.626;2023-07-31T13:46:23;6.82;;;5.60;;
34549;SDS011;66080;52.078;5.626;2023-07-31T13:48:50;7.47;;;6.15;;
34549;SDS011;66080;52.078;5.626;2023-07-31T13:51:16;6.60;;;6.00;;
34549;SDS011;66080;52.078;5.626;2023-07-31T13:53:41;9.52;;;7.28;;
34549;SDS011;66080;52.078;5.626;2023-07-31T13:56:07;11.48;;;6.50;;
34549;SDS011;66080;52.078;5.626;2023-07-31T13:58:33;8.15;;;6.10;;
34549;SDS011;66080;52.078;5.626;2023-07-31T14:00:58;7.40;;;6.07;;
34549;SDS011;66080;52.078;5.626;2023-07-31T14:03:24;5.93;;;5.35;;
34549;SDS011;66080;52.078;5.626;2023-07-31T14:05:49;6.00;;;5.32;;
34549;SDS011;66080;52.078;5.626;2023-07-31T14:08:17;9.40;;;7.13;;
34549;SDS011;66080;52.078;5.626;2023-07-31T14:10:42;6.60;;;5.93;;
34549;SDS011;66080;52.078;5.626;2023-07-31T14:13:08;10.70;;;7.43;;
34549;SDS011;66080;52.078;5.626;2023-07-31T14:15:33;10.35;;;6.93;;
34549;SDS011;66080;52.078;5.626;2023-07-31T14:18:00;10.40;;;8.32;;
34549;SDS011;66080;52.078;5.626;2023-07-31T14:20:27;11.52;;;7.70;;
34549;SDS011;66080;52.078;5.626;2023-07-31T14:22:52;13.13;;;9.25;;
34549;SDS011;66080;52.078;5.626;2023-07-31T14:25:18;11.73;;;8.65;;
34549;SDS011;66080;52.078;5.626;2023-07-31T14:27:43;13.20;;;8.38;;
34549;SDS011;66080;52.078;5.626;2023-07-31T14:30:09;10.70;;;8.30;;
34549;SDS011;66080;52.078;5.626;2023-07-31T14:32:34;12.25;;;8.30;;
34549;SDS011;66080;52.078;5.626;2023-07-31T14:35:02;8.98;;;6.70;;
34549;SDS011;66080;52.078;5.626;2023-07-31T14:37:35;8.43;;;7.10;;
34549;SDS011;66080;52.078;5.626;2023-07-31T14:40:05;13.70;;;7.60;;
34549;SDS011;66080;52.078;5.626;2023-07-31T14:42:31;9.20;;;7.55;;
34549;SDS011;66080;52.078;5.626;2023-07-31T14:44:57;10.75;;;6.85;;
34549;SDS011;66080;52.078;5.626;2023-07-31T14:47:23;9.60;;;6.43;;
34549;SDS011;66080;52.078;5.626;2023-07-31T14:49:48;9.35;;;5.80;;
34549;SDS011;66080;52.078;5.626;2023-07-31T14:52:14;8.98;;;5.72;;
34549;SDS011;66080;52.078;5.626;2023-07-31T14:54:39;8.27;;;5.93;;
34549;SDS011;66080;52.078;5.626;2023-07-31T14:57:05;8.98;;;5.95;;
34549;SDS011;66080;52.078;5.626;2023-07-31T14:59:31;9.82;;;6.13;;
34549;SDS011;66080;52.078;5.626;2023-07-31T15:01:56;7.20;;;6.50;;
34549;SDS011;66080;52.078;5.626;2023-07-31T15:04:22;7.00;;;5.82;;
34549;SDS011;66080;52.078;5.626;2023-07-31T15:06:50;6.57;;;5.47;;
34549;SDS011;66080;52.078;5.626;2023-07-31T15:09:16;5.15;;;4.65;;